Station: Sunshine Coast Airport  

  Atmospheric Gas Attenuation - ITU Rec 676-11   ----------------- dB/100km -----------------
Date Time Temp RH % AH g/m3 Dew Point Wind Direction Speed kph Gust kph Barometer mB Rainfall Since 9am 24GHz 47GHz 76GHz 122GHz 134GHz 241GHz
09/05 21:30 14.8 87 11.02 12.7 0 0 1024 0 24.7 30.1 49.9 131.2 131.2 453.1
09/05 21:20 14.8 87 11.02 12.7 0 0 1024.1 0 24.7 30.1 49.9 131.2 131.2 453.1
09/05 21:10 14.8 86 10.89 12.5 0 0 1024.2 0 24.4 29.9 49.3 129.7 129.3 446.7
09/05 21:00 14.8 86 10.89 12.5 7 11 1024.1 0 24.4 29.8 49.3 129.7 129.3 446.6
09/05 20:50 15.1 85 10.97 12.6 9 9 1024.2 0 24.6 29.9 49.5 130.1 130.0 448.9
09/05 20:40 15.2 85 11.03 12.7 9 9 1024.1 0 24.7 30.0 49.7 130.6 130.6 451.3
09/05 20:30 15.2 85 11.03 12.7 9 13 1024 0 24.7 29.9 49.7 130.6 130.6 451.2
09/05 20:20 15.2 83 10.77 12.3 9 9 1024.1 0 24.1 29.5 48.5 127.6 127.0 438.4
09/05 20:10 15.4 83 10.9 12.5 9 11 1024.1 0 24.4 29.7 49.0 128.8 128.5 443.7
09/05 20:00 15.5 82 10.84 12.4 9 13 1023.9 0 24.3 29.5 48.6 127.9 127.4 440.1
09/05 19:50 15.8 80 10.77 12.4 11 13 1023.9 0 24.1 29.3 48.2 126.6 125.9 435.0
09/05 19:40 16.1 79 10.83 12.5 9 9 1023.8 0 24.2 29.3 48.2 126.8 126.3 436.2
09/05 19:30 16.3 78 10.82 12.5 9 9 1023.6 0 24.2 29.2 48.0 126.3 125.8 434.5
09/05 19:20 16.6 78 11.02 12.8 7 9 1023.7 0 24.6 29.4 48.7 128.1 128.1 442.6
09/05 19:10 16.8 77 11.01 12.7 7 7 1023.5 0 24.6 29.4 48.5 127.7 127.6 440.9
09/05 19:00 17.2 75 10.98 12.7 7 9 1023.2 0 24.5 29.2 48.1 126.6 126.5 437.1
09/05 18:50 17.5 75 11.18 13 7 9 1023.3 0 24.9 29.4 48.8 128.4 128.8 445.0
09/05 18:40 17.4 74 10.97 12.7 9 9 1023.1 0 24.4 29.1 48.0 126.2 126.0 435.4
09/05 18:30 17.6 72 10.8 12.5 9 9 1023 0 24.1 28.7 47.1 124.0 123.4 426.2
09/05 18:20 18.1 71 10.97 12.8 9 11 1023 0 24.4 28.8 47.5 125.1 124.9 431.5
09/05 18:10 18.3 70 10.94 12.7 9 9 1022.9 0 24.3 28.7 47.3 124.4 124.1 429.0
09/05 18:00 19.1 68 11.15 13.1 13 17 1022.7 0 24.7 28.8 47.7 125.4 125.6 434.4
09/05 17:50 19.4 68 11.34 13.3 11 13 1022.7 0 25.1 29.0 48.3 127.0 127.7 441.7
09/05 17:40 19.3 68 11.28 13.2 13 15 1022.6 0 25.0 28.9 48.1 126.5 127.1 439.4
09/05 17:30 19.4 67 11.18 13.1 13 17 1022.3 0 24.8 28.7 47.6 125.2 125.5 434.0
09/05 17:20 20 65 11.23 13.2 13 15 1022.4 0 24.8 28.6 47.4 124.8 125.2 433.1
09/05 17:10 20.2 64 11.19 13.2 13 15 1022.4 0 24.7 28.5 47.2 124.1 124.4 430.1
09/05 17:00 20.6 63 11.27 13.3 15 20 1022.1 0 24.9 28.5 47.2 124.3 124.8 431.5
09/05 16:50 20.9 62 11.29 13.4 19 20 1022.1 0 24.9 28.4 47.1 124.0 124.6 430.8
09/05 16:40 21.2 61 11.3 13.4 15 17 1022 0 24.9 28.3 47.0 123.6 124.2 429.6
09/05 16:30 21.5 59 11.12 13.2 17 20 1021.8 0 24.5 27.9 46.1 121.2 121.3 419.7
09/05 16:20 21.7 59 11.25 13.3 17 19 1021.8 0 24.8 28.1 46.5 122.3 122.7 424.5
09/05 16:10 21.9 58 11.19 13.3 15 17 1021.7 0 24.6 27.9 46.1 121.3 121.6 420.7
09/05 16:00 22 57 11.06 13.1 19 26 1021.6 0 24.4 27.7 45.6 119.8 119.8 414.2
09/05 15:50 22.2 57 11.19 13.5 17 22 1021.6 0 24.6 27.8 46.0 120.9 121.1 419.1
09/05 15:40 22.2 57 11.19 13.3 26 28 1021.6 0 24.6 27.8 46.0 120.9 121.1 419.1
09/05 15:30 22.3 57 11.25 13.4 19 26 1021.5 0 24.7 27.9 46.1 121.3 121.8 421.2
09/05 15:20 22.5 56 11.18 13.3 19 22 1021.6 0 24.6 27.7 45.7 120.3 120.6 417.0
09/05 15:10 22.4 56 11.12 13.2 22 24 1021.5 0 24.5 27.7 45.6 119.8 119.9 414.8
09/05 15:00 22.4 56 11.12 13.2 22 30 1021.3 0 24.5 27.6 45.5 119.8 119.9 414.8
09/05 14:50 22.7 55 11.11 13.2 20 24 1021.4 0 24.4 27.5 45.3 119.3 119.3 412.8
09/05 14:40 22.7 55 11.11 13.2 24 28 1021.4 0 24.4 27.5 45.3 119.3 119.3 412.8
09/05 14:30 22.4 55 10.92 12.9 22 30 1021.3 0 24.0 27.3 44.8 117.7 117.3 405.8
09/05 14:20 23 57 11.71 14 20 24 1021.4 0 25.7 28.4 47.5 125.1 126.6 438.2
09/05 14:10 22.8 55 11.18 13.3 20 24 1021.4 0 24.6 27.6 45.6 119.8 120.1 415.4
09/05 14:00 22.7 56 11.31 13.5 20 30 1021.3 0 24.8 27.9 46.1 121.3 121.9 421.7
09/05 13:50 22.8 56 11.38 13.6 22 26 1021.4 0 25.0 27.9 46.3 121.9 122.6 424.4
09/05 13:40 23.1 55 11.37 13.6 22 28 1021.4 0 24.9 27.8 46.1 121.4 122.0 422.3
09/05 13:30 22.9 56 11.44 13.7 26 32 1021.3 0 25.1 28.0 46.5 122.4 123.3 426.5
09/05 13:20 23.3 57 11.92 14.3 24 28 1021.4 0 26.1 28.6 48.2 126.8 128.8 446.1
09/05 13:10 22.8 56 11.38 13.6 28 32 1021.5 0 25.0 27.9 46.3 121.9 122.7 424.4
09/05 13:00 22.8 58 11.78 14.1 24 33 1021.5 0 25.8 28.6 47.9 126.2 127.8 442.6
09/05 12:50 23.2 56 11.64 13.9 22 26 1021.6 0 25.5 28.2 47.1 124.1 125.4 434.0
09/05 12:40 23.5 54 11.42 13.7 22 24 1021.7 0 25.0 27.8 46.1 121.3 122.1 422.5
09/05 12:30 23.4 56 11.77 14.1 19 24 1021.7 0 25.8 28.4 47.5 125.1 126.8 438.8
09/05 12:20 23.1 54 11.16 13.3 17 20 1021.9 0 24.5 27.5 45.3 119.2 119.4 413.1
09/05 12:10 22.5 55 10.98 13 20 24 1022.1 0 24.2 27.4 45.0 118.3 118.0 408.2
09/05 12:00 23.3 57 11.92 14.3 20 24 1022 0 26.1 28.7 48.2 126.9 128.9 446.3
09/05 11:50 22.8 56 11.38 13.6 19 22 1022.3 0 25.0 28.0 46.4 122.0 122.7 424.7
09/05 11:40 23.1 53 10.96 13 19 22 1022.3 0 24.1 27.2 44.6 117.2 116.9 404.3
09/05 11:30 23.6 52 11.06 13.2 15 20 1022.2 0 24.3 27.2 44.7 117.5 117.4 406.2
09/05 11:20 23.4 52 10.93 13 17 19 1022.4 0 24.0 27.1 44.3 116.5 116.1 401.5
09/05 11:10 22.9 54 11.04 13.1 19 22 1022.5 0 24.3 27.4 45.0 118.4 118.2 409.0
09/05 11:00 22.9 51 10.42 12.2 17 24 1022.4 0 23.0 26.4 42.6 112.0 110.4 381.6
09/05 10:50 22.9 52 10.63 12.5 20 24 1022.6 0 23.4 26.8 43.4 114.1 113.1 390.8
09/05 10:40 22.6 52 10.45 12.3 15 20 1022.6 0 23.0 26.6 42.9 112.7 111.2 384.4
09/05 10:30 22.7 56 11.31 13.5 17 22 1022.7 0 24.8 27.9 46.2 121.5 122.0 422.2
09/05 10:20 22.3 53 10.46 12.5 17 20 1022.9 0 23.1 26.7 43.1 113.3 111.8 386.4
09/05 10:10 22.1 53 10.35 12.1 13 17 1023 0 22.9 26.6 42.8 112.5 110.7 382.5
09/05 10:00 21.8 53 10.17 11.8 13 20 1022.8 0 22.5 26.4 42.3 111.0 108.8 375.9
09/05 09:50 21.4 54 10.12 11.7 11 13 1022.9 0 22.4 26.4 42.3 111.1 108.8 375.7
09/05 09:40 21.2 53 9.82 11.2 15 17 1022.8 0 21.8 26.0 41.2 108.3 105.3 363.3
09/05 09:30 20.9 54 9.83 11.3 15 20 1022.7 0 21.8 26.1 41.4 108.8 105.8 365.1
09/05 09:20 20.5 54 9.61 10.9 15 19 1022.8 0 21.4 25.9 40.8 107.1 103.5 357.3
09/05 09:10 20 55 9.5 10.7 13 17 1022.7 0 21.2 25.9 40.6 106.6 102.8 354.6
09/05 09:00 19.4 55 9.18 10.1 13 19 1022.7 0 20.5 25.6 39.7 104.1 99.6 343.2
09/05 08:50 18.7 54 8.64 9.2 15 17 1022.6 0 19.4 24.9 38.0 99.5 93.6 322.4
09/05 08:40 18.4 60 9.44 10.5 7 9 1022.6 0 21.1 26.2 41.2 108.1 104.1 359.1
09/05 08:30 17.7 59 8.9 9.6 9 13 1022.4 0 20.0 25.6 39.4 103.4 98.1 337.9
09/05 08:20 17.3 64 9.43 10.4 9 13 1022.4 0 21.2 26.5 41.7 109.5 105.5 363.6
09/05 08:10 17.1 63 9.17 10 9 11 1022.3 0 20.6 26.2 40.8 107.0 102.4 352.7
09/05 08:00 16.5 68 9.55 10.6 9 11 1022.1 0 21.5 27.0 42.6 111.9 108.1 372.8
09/05 07:50 15.6 70 9.31 10.2 9 11 1022.2 0 21.0 26.9 42.1 110.6 106.2 365.9
09/05 07:40 14.6 77 9.64 10.6 9 11 1022 0 21.8 27.7 44.0 115.6 112.0 386.2
09/05 07:30 13.4 86 10 11.1 9 11 1021.6 0 22.6 28.7 46.2 121.4 118.8 409.6
09/05 07:20 12.5 86 9.46 10.2 11 13 1021.7 0 21.5 28.0 44.4 116.7 112.6 387.9
09/05 07:10 12.4 90 9.83 10.8 9 11 1021.5 0 22.3 28.7 46.1 121.0 117.9 406.5
09/05 07:00 11.3 92 9.39 10 9 11 1021.2 0 21.4 28.3 44.8 117.6 113.3 390.3
09/05 06:50 10.5 93 9.02 9.4 7 7 1021.2 0 20.6 27.9 43.7 114.6 109.3 376.0
09/05 06:40 9.7 92 8.48 8.5 7 7 1021.2 0 19.5 27.2 41.8 109.6 102.8 353.2
09/05 06:30 9.6 92 8.43 8.4 9 11 1021.1 0 19.4 27.2 41.6 109.1 102.2 351.1
09/05 06:20 9.4 93 8.41 8.3 9 9 1020.9 0 19.4 27.2 41.6 109.2 102.2 351.0
09/05 06:10 9.1 93 8.25 8 9 11 1020.8 0 19.1 27.0 41.1 107.8 100.3 344.5
09/05 05:50 9.1 93 8.25 8 7 7 1020.6 0 19.1 27.0 41.1 107.7 100.3 344.4
09/05 05:40 9.3 94 8.45 8.4 7 7 1020.4 0 19.5 27.3 41.8 109.7 102.8 353.3
09/05 05:30 8.7 93 8.05 7.6 7 11 1020.5 0 18.6 26.8 40.4 106.0 98.0 336.4
09/05 05:20 8.9 93 8.15 7.8 0 0 1020.3 0 18.9 26.9 40.8 106.9 99.1 340.3
09/05 05:10 9.1 93 8.25 8 7 9 1020.2 0 19.1 27.0 41.1 107.7 100.3 344.3
09/05 05:00 9 93 8.2 7.9 9 11 1020.1 0 19.0 26.9 40.9 107.3 99.7 342.3
09/05 04:50 9.1 94 8.34 8.2 11 11 1020.2 0 19.3 27.1 41.5 108.7 101.5 348.7

Last Refresh: 09-May-2026 21:11:55

Bureau of Meteorology